Temp: 5.2°C   Baro: 1000.3mb
  Wind: 0.0mph   Dir: WSW (242°)
  Rain: 0.0mm (0.0mm/hr)
  Solar: 63W/m2  Hum: 90%
 
Bath Spa Weather Historical Data
Daily Summary for August 14, 2019 Units:  English    Metric   Both
Next Day »
Daily Weekly Monthly Yearly Custom
  High: Low: Average:
Temperature: 63.9 °F 55.4 °F 59.4 °F
Dew Point: 61.5 °F 52.2 °F 56.7 °F
Humidity: 94% 84% 91%
Wind Speed: 19mph 0mph 4.5mph
Wind Gust: 19mph - -
Wind direction- - SW
Pressure: 30 in 29.7 in -
Precipitation: 0.35 in    
Historical Graphs
 
 
Tabular Data for August 14, 2019
Time Temperature Dew Point Pressure Wind direction Wind Speed Wind Gust Humidity Rainfall Rate (Hourly) solar
00:00 57 °F 52.2 °F 30 in Calm     84% 0 in 0.00 W/m2
00:05 57.2 °F 52.3 °F 30 in Calm     84% 0 in 0.00 W/m2
00:10 57.2 °F 52.3 °F 30 in Calm     84% 0 in 0.00 W/m2
00:15 57 °F 52.2 °F 30 in Calm     84% 0 in 0.00 W/m2
00:20 57 °F 52.2 °F 30 in Calm     84% 0 in 0.00 W/m2
00:25 57 °F 52.5 °F 30 in Calm     85% 0 in 0.00 W/m2
00:30 56.8 °F 52.3 °F 30 in Calm     85% 0 in 0.00 W/m2
00:35 56.8 °F 52.3 °F 30 in Calm     85% 0 in 0.00 W/m2
00:40 56.8 °F 52.3 °F 30 in Calm     85% 0 in 0.00 W/m2
00:45 57 °F 52.5 °F 30 in Calm   2 mph 85% 0 in 0.00 W/m2
00:50 57 °F 52.5 °F 30 in Calm   1 mph 85% 0 in 0.00 W/m2
00:55 57 °F 52.5 °F 30 in Calm   3 mph 85% 0 in 0.00 W/m2
01:00 57 °F 52.5 °F 30 in WSW 0.9 mph 1 mph 85% 0 in 0.00 W/m2
01:05 57 °F 52.5 °F 30 in Calm   2 mph 85% 0 in 0.00 W/m2
01:10 57.2 °F 52.7 °F 30 in Calm   4 mph 85% 0 in 0.00 W/m2
01:15 57.4 °F 52.9 °F 30 in Calm   6 mph 85% 0 in 0.00 W/m2
01:20 57.6 °F 53.1 °F 30 in Calm   1 mph 85% 0 in 0.00 W/m2
01:25 57.6 °F 53.1 °F 30 in SW 2 mph 3 mph 85% 0 in 0.00 W/m2
01:30 57.6 °F 53.1 °F 30 in Calm   2 mph 85% 0 in 0.00 W/m2
01:35 57.6 °F 53.1 °F 30 in Calm   2 mph 85% 0 in 0.00 W/m2
01:40 57.6 °F 53.1 °F 30 in Calm   3 mph 85% 0 in 0.00 W/m2
01:45 57.6 °F 53.1 °F 30 in Calm   4 mph 85% 0 in 0.00 W/m2
01:50 57.6 °F 53.1 °F 30 in Calm   1 mph 85% 0 in 0.00 W/m2
01:55 57.4 °F 52.9 °F 30 in Calm     85% 0 in 0.00 W/m2
02:00 57.2 °F 52.7 °F 30 in Calm     85% 0 in 0.00 W/m2
02:05 57.2 °F 53.1 °F 30 in Calm   1 mph 86% 0 in 0.00 W/m2
02:10 57 °F 52.9 °F 30 in SW 0.9 mph 3 mph 86% 0 in 0.00 W/m2
02:15 57.2 °F 53.1 °F 30 in Calm     86% 0 in 0.00 W/m2
02:20 57.2 °F 53.1 °F 30 in SW 2 mph 5 mph 86% 0 in 0.00 W/m2
02:25 57.4 °F 53.6 °F 30 in SW 0.9 mph 2 mph 87% 0 in 0.00 W/m2
02:30 57.6 °F 53.8 °F 30 in SW 6 mph 6 mph 87% 0 in 0.00 W/m2
02:35 57.6 °F 53.8 °F 30 in SSW 2 mph 4 mph 87% 0 in 0.00 W/m2
02:40 57.7 °F 54 °F 30 in Calm   1 mph 87% 0 in 0.00 W/m2
02:45 57.7 °F 54 °F 30 in SSW 2 mph 6 mph 87% 0 in 0.00 W/m2
02:50 57.7 °F 54 °F 30 in SSW 4 mph 6 mph 87% 0 in 0.00 W/m2
02:55 57.7 °F 54 °F 30 in SW 0.9 mph 4 mph 87% 0 in 0.00 W/m2
03:00 57.6 °F 53.8 °F 30 in Calm   2 mph 87% 0 in 0.00 W/m2
03:05 57.6 °F 53.8 °F 30 in Calm   1 mph 87% 0 in 0.00 W/m2
03:10 57.6 °F 53.8 °F 30 in SW 0.9 mph 2 mph 87% 0 in 0.00 W/m2
03:15 57.4 °F 53.6 °F 30 in Calm   2 mph 87% 0 in 0.00 W/m2
03:20 57.4 °F 53.6 °F 30 in Calm     87% 0 in 0.00 W/m2
03:25 57.4 °F 53.6 °F 30 in Calm   1 mph 87% 0 in 0.00 W/m2
03:30 57.2 °F 53.4 °F 30 in Calm     87% 0 in 0.00 W/m2
03:35 57.4 °F 53.8 °F 30 in Calm   2 mph 88% 0 in 0.00 W/m2
03:40 57.2 °F 53.6 °F 30 in Calm     88% 0 in 0.00 W/m2
03:45 57.4 °F 53.8 °F 30 in SW 2 mph 2 mph 88% 0 in 0.00 W/m2
03:50 57.4 °F 53.8 °F 30 in Calm   2 mph 88% 0 in 0.00 W/m2
03:55 57.6 °F 54 °F 30 in Calm   2 mph 88% 0 in 0.00 W/m2
04:00 57.4 °F 53.8 °F 30 in SW 0.9 mph 2 mph 88% 0 in 0.00 W/m2
04:05 57.4 °F 53.8 °F 30 in Calm     88% 0 in 0.00 W/m2
04:10 57.2 °F 53.6 °F 30 in Calm   1 mph 88% 0 in 0.00 W/m2
04:15 57.2 °F 53.6 °F 30 in SW 0.9 mph 3 mph 88% 0 in 0.00 W/m2
04:20 57.2 °F 53.6 °F 30 in SW 0.9 mph 2 mph 88% 0 in 0.00 W/m2
04:25 57.2 °F 53.6 °F 30 in Calm   4 mph 88% 0 in 0.00 W/m2
04:30 57.2 °F 54 °F 30 in Calm   2 mph 89% 0 in 0.00 W/m2
04:35 57.2 °F 54 °F 30 in Calm   2 mph 89% 0 in 0.00 W/m2
04:40 57.2 °F 54 °F 30 in Calm   1 mph 89% 0 in 0.00 W/m2
04:45 57.2 °F 54 °F 30 in Calm   2 mph 89% 0 in 0.00 W/m2
04:50 57.2 °F 54 °F 30 in Calm   1 mph 89% 0 in 0.00 W/m2
04:55 57.2 °F 54 °F 29.9 in Calm   1 mph 89% 0 in 0.00 W/m2
05:00 57.4 °F 54.1 °F 29.9 in Calm   1 mph 89% 0 in 0.00 W/m2
05:05 57.4 °F 54.1 °F 29.9 in Calm   1 mph 89% 0 in 0.00 W/m2
05:10 57.4 °F 54.1 °F 29.9 in Calm   1 mph 89% 0 in 0.00 W/m2
05:15 57.4 °F 54.1 °F 29.9 in Calm     89% 0.01 in 0.00 W/m2
05:20 57.4 °F 54.5 °F 29.9 in Calm   2 mph 90% 0.01 in 0.00 W/m2
05:25 57.4 °F 54.5 °F 29.9 in Calm   1 mph 90% 0.02 in 0.00 W/m2
05:30 57.2 °F 54.3 °F 29.9 in Calm   2 mph 90% 0.02 in 0.00 W/m2
05:35 57.2 °F 54.3 °F 29.9 in SW 0.9 mph 2 mph 90% 0.02 in 0.00 W/m2
05:40 57.2 °F 54.3 °F 29.9 in Calm   4 mph 90% 0.02 in 0.00 W/m2
05:45 57 °F 54.1 °F 29.9 in Calm   3 mph 90% 0.04 in 0.00 W/m2
05:50 57 °F 54.1 °F 29.9 in Calm   1 mph 90% 0.04 in 0.00 W/m2
05:55 57 °F 54.5 °F 29.9 in Calm   1 mph 91% 0.04 in 0.00 W/m2
06:00 57 °F 54.5 °F 29.9 in SW 2.9 mph 3 mph 91% 0.04 in 0.00 W/m2
06:05 57 °F 54.5 °F 29.9 in Calm   3 mph 91% 0.04 in 0.00 W/m2
06:10 56.8 °F 54.3 °F 29.9 in SSE 2.9 mph 5 mph 91% 0.04 in 0.00 W/m2
06:15 56.8 °F 54.3 °F 29.9 in Calm   5 mph 91% 0.04 in 0.00 W/m2
06:20 56.8 °F 54.3 °F 29.9 in SSE 6.9 mph 7 mph 91% 0.04 in 5.00 W/m2
06:25 56.8 °F 54.3 °F 29.9 in SSE 2.9 mph 8 mph 91% 0.04 in 0.00 W/m2
06:30 56.8 °F 54.3 °F 29.9 in SSE 4 mph 7 mph 91% 0.04 in 0.00 W/m2
06:35 56.8 °F 54.5 °F 29.9 in SSE 4 mph 5 mph 92% 0.03 in 5.00 W/m2
06:40 56.7 °F 54.3 °F 29.9 in Calm   4 mph 92% 0.03 in 7.00 W/m2
06:45 56.8 °F 54.5 °F 29.9 in Calm   3 mph 92% 0.02 in 5.00 W/m2
06:50 56.7 °F 54.3 °F 29.9 in SSE 2 mph 5 mph 92% 0.02 in 11.00 W/m2
06:55 56.7 °F 54.3 °F 29.9 in SSE 0.9 mph 4 mph 92% 0.02 in 18.00 W/m2
07:00 56.8 °F 54.5 °F 29.9 in SSE 2 mph 2 mph 92% 0.03 in 23.00 W/m2
07:05 56.8 °F 54.5 °F 29.9 in SSE 2 mph 3 mph 92% 0.04 in 37.00 W/m2
07:10 56.8 °F 54.5 °F 29.9 in SSE 2 mph 4 mph 92% 0.04 in 30.00 W/m2
07:15 56.8 °F 54.5 °F 29.9 in SSE 0.9 mph 2 mph 92% 0.04 in 12.00 W/m2
07:20 56.8 °F 54.5 °F 29.9 in SSE 2 mph 4 mph 92% 0.05 in 0.00 W/m2
07:25 56.7 °F 54.3 °F 29.9 in SSE 2.9 mph 6 mph 92% 0.07 in 0.00 W/m2
07:30 56.8 °F 54.5 °F 29.9 in SSE 4 mph 5 mph 92% 0.1 in 0.00 W/m2
07:35 56.7 °F 54.3 °F 29.9 in SW 2 mph 9 mph 92% 0.13 in 0.00 W/m2
07:40 56.3 °F 54 °F 29.9 in SW 2.9 mph 8 mph 92% 0.16 in 0.00 W/m2
07:45 56.1 °F 53.8 °F 29.9 in SSW 4.9 mph 8 mph 92% 0.17 in 0.00 W/m2
07:50 55.8 °F 53.4 °F 29.9 in SSW 4 mph 7 mph 92% 0.17 in 0.00 W/m2
07:55 55.4 °F 53.1 °F 29.9 in South 10.1 mph 11 mph 92% 0.17 in 7.00 W/m2
08:00 55.4 °F 53.1 °F 29.9 in South 6 mph 10 mph 92% 0.16 in 11.00 W/m2
08:05 55.4 °F 53.1 °F 29.9 in SSE 2.9 mph 10 mph 92% 0.15 in 19.00 W/m2
08:10 55.4 °F 53.1 °F 29.9 in ESE 2.9 mph 8 mph 92% 0.14 in 16.00 W/m2
08:15 55.4 °F 53.1 °F 29.9 in South 2 mph 10 mph 92% 0.13 in 21.00 W/m2
08:20 55.4 °F 53.1 °F 29.9 in South 6 mph 10 mph 92% 0.11 in 19.00 W/m2
08:25 55.4 °F 53.1 °F 29.9 in SSW 6.9 mph 10 mph 92% 0.09 in 30.00 W/m2
08:30 55.4 °F 53.1 °F 29.9 in South 4.9 mph 8 mph 92% 0.05 in 37.00 W/m2
08:35 55.6 °F 53.2 °F 29.9 in SSE 6 mph 11 mph 92% 0.04 in 35.00 W/m2
08:40 55.8 °F 53.4 °F 29.9 in SSE 4.9 mph 9 mph 92% 0.02 in 30.00 W/m2
08:45 55.6 °F 53.2 °F 29.9 in South 4.9 mph 12 mph 92% 0.01 in 40.00 W/m2
08:50 55.8 °F 53.4 °F 29.9 in SSE 4.9 mph 14 mph 92% 0.01 in 42.00 W/m2
08:55 55.8 °F 53.4 °F 29.9 in SSE 4 mph 9 mph 92% 0.01 in 46.00 W/m2
09:00 55.8 °F 53.4 °F 29.9 in South 6.9 mph 13 mph 92% 0.01 in 58.00 W/m2
09:05 55.8 °F 53.4 °F 29.9 in SSE 4.9 mph 9 mph 92% 0.01 in 60.00 W/m2
09:10 55.9 °F 53.6 °F 29.9 in South 14.1 mph 18 mph 92% 0.01 in 67.00 W/m2
09:15 55.9 °F 54 °F 29.9 in South 8.1 mph 14 mph 93% 0.02 in 86.00 W/m2
09:20 56.1 °F 54.1 °F 29.9 in South 6.9 mph 16 mph 93% 0.02 in 98.00 W/m2
09:25 56.3 °F 54.3 °F 29.9 in South 8.9 mph 12 mph 93% 0.02 in 90.00 W/m2
09:30 56.3 °F 54.3 °F 29.9 in SSE 6 mph 14 mph 93% 0.02 in 70.00 W/m2
09:35 56.7 °F 54.7 °F 29.9 in SSE 6 mph 7 mph 93% 0.03 in 70.00 W/m2
09:40 56.7 °F 54.7 °F 29.8 in SSW 2.9 mph 14 mph 93% 0.04 in 70.00 W/m2
09:45 56.8 °F 54.9 °F 29.9 in South 4.9 mph 8 mph 93% 0.04 in 58.00 W/m2
09:50 57 °F 55 °F 29.8 in WSW 6.9 mph 12 mph 93% 0.04 in 86.00 W/m2
09:55 57 °F 54.7 °F 29.8 in SSE 13 mph 13 mph 92% 0.04 in 70.00 W/m2
10:00 57 °F 54.7 °F 29.8 in SSE 4 mph 10 mph 92% 0.06 in 62.00 W/m2
10:05 57 °F 54.7 °F 29.8 in SSE 8.1 mph 18 mph 92% 0.07 in 67.00 W/m2
10:10 57 °F 54.7 °F 29.8 in South 6.9 mph 18 mph 92% 0.06 in 98.00 W/m2
10:15 57 °F 54.7 °F 29.8 in South 15 mph 19 mph 92% 0.07 in 125.00 W/m2
10:20 57 °F 54.7 °F 29.8 in SSW 8.1 mph 15 mph 92% 0.07 in 98.00 W/m2
10:25 57 °F 54.7 °F 29.8 in SSW 6 mph 12 mph 92% 0.07 in 127.00 W/m2
10:30 57.2 °F 54.9 °F 29.8 in South 6.9 mph 15 mph 92% 0.07 in 185.00 W/m2
10:35 57.2 °F 54.9 °F 29.8 in South 8.1 mph 18 mph 92% 0.05 in 139.00 W/m2
10:40 57.2 °F 54.9 °F 29.8 in South 10.1 mph 14 mph 92% 0.05 in 128.00 W/m2
10:45 57.6 °F 55.2 °F 29.8 in South 4 mph 10 mph 92% 0.05 in 148.00 W/m2
10:50 57.6 °F 55.2 °F 29.8 in SW 4 mph 11 mph 92% 0.04 in 193.00 W/m2
10:55 57.7 °F 55.4 °F 29.8 in SSW 6.9 mph 8 mph 92% 0.04 in 183.00 W/m2
11:00 57.7 °F 55.4 °F 29.8 in South 4.9 mph 13 mph 92% 0.02 in 132.00 W/m2
11:05 57.7 °F 55.4 °F 29.8 in SW 4.9 mph 17 mph 92% 0.01 in 149.00 W/m2
11:10 57.9 °F 55.6 °F 29.8 in SSW 4.9 mph 10 mph 92% 0 in 153.00 W/m2
11:15 58.1 °F 56.1 °F 29.8 in South 2.9 mph 10 mph 93% 0 in 142.00 W/m2
11:20 58.3 °F 56.3 °F 29.8 in SSW 4.9 mph 8 mph 93% 0 in 148.00 W/m2
11:25 58.5 °F 56.5 °F 29.8 in South 4 mph 11 mph 93% 0 in 111.00 W/m2
11:30 58.6 °F 56.7 °F 29.8 in SSW 4 mph 11 mph 93% 0 in 97.00 W/m2
11:35 58.8 °F 56.8 °F 29.8 in South 6 mph 15 mph 93% 0 in 102.00 W/m2
11:40 59 °F 57 °F 29.8 in South 6 mph 11 mph 93% 0 in 155.00 W/m2
11:45 59.2 °F 57.2 °F 29.8 in South 13 mph 13 mph 93% 0 in 111.00 W/m2
11:50 59.4 °F 57.4 °F 29.8 in SSW 2.9 mph 9 mph 93% 0 in 109.00 W/m2
11:55 59.5 °F 57.6 °F 29.8 in SSW 4.9 mph 12 mph 93% 0 in 102.00 W/m2
12:00 59.7 °F 57.7 °F 29.8 in SSE 2.9 mph 14 mph 93% 0 in 118.00 W/m2
12:05 59.9 °F 57.9 °F 29.8 in WSW 10.1 mph 13 mph 93% 0 in 79.00 W/m2
12:10 60.1 °F 58.1 °F 29.8 in SSW 2.9 mph 11 mph 93% 0 in 72.00 W/m2
12:15 60.3 °F 58.3 °F 29.8 in SSW 4.9 mph 15 mph 93% 0 in 172.00 W/m2
12:20 60.3 °F 58.3 °F 29.8 in SW 11 mph 15 mph 93% 0 in 90.00 W/m2
12:25 60.3 °F 57.9 °F 29.8 in SSW 8.1 mph 18 mph 92% 0 in 155.00 W/m2
12:30 60.3 °F 57.9 °F 29.8 in SW 4 mph 15 mph 92% 0 in 130.00 W/m2
12:35 60.4 °F 58.1 °F 29.8 in SW 8.9 mph 15 mph 92% 0 in 169.00 W/m2
12:40 60.6 °F 57.9 °F 29.8 in South 4 mph 14 mph 91% 0 in 178.00 W/m2
12:45 60.8 °F 58.1 °F 29.8 in SSW 19 mph 19 mph 91% 0 in 109.00 W/m2
12:50 60.6 °F 57.9 °F 29.8 in WSW 11 mph 14 mph 91% 0 in 123.00 W/m2
12:55 60.6 °F 57.9 °F 29.8 in SW 6 mph 12 mph 91% 0 in 102.00 W/m2
13:00 60.8 °F 58.1 °F 29.8 in SW 6 mph 6 mph 91% 0 in 86.00 W/m2
13:05 60.6 °F 57.9 °F 29.8 in SW 12.1 mph 18 mph 91% 0 in 86.00 W/m2
13:10 60.6 °F 57.9 °F 29.8 in SSW 6.9 mph 15 mph 91% 0 in 134.00 W/m2
13:15 60.6 °F 57.9 °F 29.8 in SSW 8.9 mph 18 mph 91% 0 in 158.00 W/m2
13:20 60.6 °F 57.9 °F 29.8 in SSW 4 mph 15 mph 91% 0 in 218.00 W/m2
13:25 60.8 °F 58.1 °F 29.8 in SW 12.1 mph 15 mph 91% 0 in 188.00 W/m2
13:30 60.8 °F 58.1 °F 29.8 in WSW 8.1 mph 15 mph 91% 0 in 195.00 W/m2
13:35 61 °F 58.3 °F 29.8 in SW 8.1 mph 12 mph 91% 0 in 137.00 W/m2
13:40 61.2 °F 58.5 °F 29.8 in SSW 4 mph 10 mph 91% 0 in 265.00 W/m2
13:45 61.2 °F 58.3 °F 29.8 in SSW 4.9 mph 15 mph 90% 0 in 193.00 W/m2
13:50 61.2 °F 58.3 °F 29.8 in SSW 2.9 mph 10 mph 90% 0 in 190.00 W/m2
13:55 61 °F 58.3 °F 29.8 in SSW 4 mph 15 mph 91% 0 in 200.00 W/m2
14:00 61 °F 58.3 °F 29.8 in SSW 6 mph 14 mph 91% 0 in 135.00 W/m2
14:05 60.8 °F 58.1 °F 29.8 in SSW 6.9 mph 17 mph 91% 0 in 104.00 W/m2
14:10 60.8 °F 58.1 °F 29.8 in SSW 10.1 mph 13 mph 91% 0 in 113.00 W/m2
14:15 60.6 °F 57.9 °F 29.8 in SSW 10.1 mph 14 mph 91% 0 in 111.00 W/m2
14:20 60.8 °F 58.1 °F 29.8 in SSW 4.9 mph 9 mph 91% 0 in 109.00 W/m2
14:25 60.8 °F 58.1 °F 29.8 in SSW 6.9 mph 15 mph 91% 0 in 98.00 W/m2
14:30 60.8 °F 58.1 °F 29.8 in SW 4 mph 14 mph 91% 0 in 105.00 W/m2
14:35 60.6 °F 57.9 °F 29.8 in SW 8.9 mph 12 mph 91% 0 in 88.00 W/m2
14:40 60.6 °F 57.9 °F 29.8 in SW 8.1 mph 10 mph 91% 0 in 107.00 W/m2
14:45 60.6 °F 58.3 °F 29.8 in South 8.9 mph 12 mph 92% 0 in 128.00 W/m2
14:50 60.6 °F 58.3 °F 29.8 in SSW 14 mph 14 mph 92% 0 in 97.00 W/m2
14:55 60.8 °F 58.5 °F 29.8 in SSW 6.9 mph 12 mph 92% 0 in 98.00 W/m2
15:00 60.8 °F 58.5 °F 29.8 in SSW 11 mph 12 mph 92% 0 in 91.00 W/m2
15:05 61 °F 58.6 °F 29.8 in SSW 10.1 mph 12 mph 92% 0 in 79.00 W/m2
15:10 61 °F 58.6 °F 29.8 in SSW 8.9 mph 18 mph 92% 0 in 67.00 W/m2
15:15 61 °F 58.6 °F 29.8 in SSW 4 mph 14 mph 92% 0 in 69.00 W/m2
15:20 61 °F 58.6 °F 29.8 in SW 6 mph 8 mph 92% 0 in 83.00 W/m2
15:25 61 °F 58.6 °F 29.8 in SSW 2 mph 8 mph 92% 0 in 84.00 W/m2
15:30 61 °F 58.6 °F 29.8 in SW 13 mph 13 mph 92% 0 in 90.00 W/m2
15:35 60.8 °F 58.5 °F 29.8 in SSW 2.9 mph 16 mph 92% 0 in 105.00 W/m2
15:40 60.8 °F 58.5 °F 29.8 in South 2.9 mph 14 mph 92% 0 in 95.00 W/m2
15:45 61 °F 58.6 °F 29.8 in SSW 4 mph 8 mph 92% 0 in 98.00 W/m2
15:50 61.2 °F 58.8 °F 29.8 in WSW 2 mph 10 mph 92% 0 in 153.00 W/m2
15:55 61.2 °F 58.8 °F 29.8 in SSW 2 mph 10 mph 92% 0 in 137.00 W/m2
16:00 61.3 °F 59 °F 29.8 in WSW 8.1 mph 9 mph 92% 0 in 134.00 W/m2
16:05 61.3 °F 59 °F 29.8 in WSW 8.1 mph 11 mph 92% 0 in 142.00 W/m2
16:10 61.5 °F 59.2 °F 29.8 in SW 2.9 mph 9 mph 92% 0 in 216.00 W/m2
16:15 61.5 °F 59.2 °F 29.8 in SW 4 mph 9 mph 92% 0 in 225.00 W/m2
16:20 61.7 °F 59.4 °F 29.8 in SW 8.1 mph 11 mph 92% 0 in 223.00 W/m2
16:25 61.9 °F 59.5 °F 29.8 in SW 2 mph 6 mph 92% 0 in 181.00 W/m2
16:30 62.1 °F 59.7 °F 29.7 in SW 8.1 mph 10 mph 92% 0 in 163.00 W/m2
16:35 62.1 °F 59.7 °F 29.7 in SSW 2 mph 9 mph 92% 0 in 132.00 W/m2
16:40 62.2 °F 59.9 °F 29.7 in SW 6 mph 10 mph 92% 0 in 178.00 W/m2
16:45 62.6 °F 60.3 °F 29.7 in SW 6 mph 6 mph 92% 0 in 218.00 W/m2
16:50 63 °F 60.6 °F 29.7 in WSW 11 mph 11 mph 92% 0 in 125.00 W/m2
16:55 63 °F 60.6 °F 29.7 in SW 4 mph 11 mph 92% 0 in 74.00 W/m2
17:00 63.1 °F 60.8 °F 29.7 in SW 8.1 mph 12 mph 92% 0 in 72.00 W/m2
17:05 63.1 °F 60.4 °F 29.7 in WSW 10.1 mph 11 mph 91% 0 in 23.00 W/m2
17:10 63.3 °F 60.6 °F 29.7 in WNW 6.9 mph 10 mph 91% 0 in 47.00 W/m2
17:15 63.3 °F 60.6 °F 29.7 in West 2 mph 6 mph 91% 0 in 121.00 W/m2
17:20 63.3 °F 60.6 °F 29.7 in West 6 mph 8 mph 91% 0 in 193.00 W/m2
17:25 63.3 °F 60.6 °F 29.7 in West 4.9 mph 9 mph 91% 0 in 192.00 W/m2
17:30 63.7 °F 61.3 °F 29.7 in West 2 mph 7 mph 92% 0 in 265.00 W/m2
17:35 63.9 °F 61.5 °F 29.7 in WNW 4.9 mph 6 mph 92% 0 in 167.00 W/m2
17:40 63.9 °F 61.5 °F 29.7 in West 6 mph 8 mph 92% 0 in 116.00 W/m2
17:45 63.7 °F 61.3 °F 29.7 in WNW 12 mph 12 mph 92% 0 in 107.00 W/m2
17:50 63.5 °F 61.2 °F 29.7 in West 12.1 mph 12 mph 92% 0 in 76.00 W/m2
17:55 63.5 °F 61.2 °F 29.7 in WNW 4.9 mph 10 mph 92% 0.01 in 86.00 W/m2
18:00 63.5 °F 61.2 °F 29.7 in West 2 mph 7 mph 92% 0.01 in 93.00 W/m2
18:05 63.5 °F 61.2 °F 29.7 in West 4.9 mph 6 mph 92% 0.01 in 70.00 W/m2
18:10 63.3 °F 61 °F 29.7 in WNW 4 mph 8 mph 92% 0.01 in 72.00 W/m2
18:15 63.3 °F 61 °F 29.7 in West 8.9 mph 9 mph 92% 0.01 in 42.00 W/m2
18:20 63 °F 60.6 °F 29.7 in West 4 mph 10 mph 92% 0.01 in 67.00 W/m2
18:25 63 °F 60.6 °F 29.7 in WNW 4 mph 8 mph 92% 0.01 in 54.00 W/m2
18:30 63 °F 61 °F 29.7 in WNW 4 mph 8 mph 93% 0.01 in 40.00 W/m2
18:35 62.6 °F 60.6 °F 29.7 in West 6 mph 6 mph 93% 0.03 in 70.00 W/m2
18:40 62.6 °F 60.6 °F 29.7 in West 0.9 mph 8 mph 93% 0.04 in 42.00 W/m2
18:45 62.4 °F 60.4 °F 29.7 in West 0.9 mph 7 mph 93% 0.04 in 40.00 W/m2
18:50 62.2 °F 60.3 °F 29.7 in West 6 mph 10 mph 93% 0.04 in 47.00 W/m2
18:55 62.2 °F 60.3 °F 29.7 in West 4 mph 7 mph 93% 0.03 in 51.00 W/m2
19:00 62.4 °F 60.4 °F 29.7 in West 4.9 mph 11 mph 93% 0.03 in 37.00 W/m2
19:05 62.2 °F 60.3 °F 29.7 in WNW 8.9 mph 12 mph 93% 0.03 in 33.00 W/m2
19:10 62.2 °F 60.3 °F 29.7 in West 4.9 mph 6 mph 93% 0.03 in 56.00 W/m2
19:15 62.1 °F 60.3 °F 29.7 in WNW 2 mph 13 mph 94% 0.03 in 60.00 W/m2
19:20 62.1 °F 60.1 °F 29.7 in WNW 4 mph 9 mph 93% 0.03 in 63.00 W/m2
19:25 61.9 °F 59.9 °F 29.7 in West 4 mph 12 mph 93% 0.03 in 44.00 W/m2
19:30 61.9 °F 59.9 °F 29.7 in West 2 mph 10 mph 93% 0.03 in 32.00 W/m2
19:35 61.9 °F 59.9 °F 29.7 in WNW 4.9 mph 13 mph 93% 0 in 30.00 W/m2
19:40 61.9 °F 59.9 °F 29.7 in WNW 6 mph 9 mph 93% 0 in 39.00 W/m2
19:45 61.7 °F 59.7 °F 29.7 in WNW 4 mph 8 mph 93% 0 in 30.00 W/m2
19:50 61.7 °F 59.4 °F 29.7 in West 6 mph 7 mph 92% 0 in 26.00 W/m2
19:55 61.7 °F 59.4 °F 29.7 in West 2.9 mph 8 mph 92% 0 in 25.00 W/m2
20:00 61.7 °F 59.4 °F 29.7 in West 4 mph 10 mph 92% 0 in 21.00 W/m2
20:05 61.7 °F 59.4 °F 29.7 in West 4.9 mph 11 mph 92% 0 in 18.00 W/m2
20:10 61.7 °F 59.4 °F 29.7 in WNW 4.9 mph 12 mph 92% 0 in 12.00 W/m2
20:15 61.7 °F 59.4 °F 29.7 in West 2.9 mph 8 mph 92% 0 in 9.00 W/m2
20:20 61.7 °F 59.4 °F 29.7 in WNW 6 mph 9 mph 92% 0 in 0.00 W/m2
20:25 61.7 °F 59.4 °F 29.7 in West 4.9 mph 8 mph 92% 0 in 0.00 W/m2
20:30 61.9 °F 59.5 °F 29.7 in West 8.1 mph 11 mph 92% 0 in 0.00 W/m2
20:35 61.9 °F 59.5 °F 29.7 in WNW 6.9 mph 10 mph 92% 0 in 0.00 W/m2
20:40 61.9 °F 59.5 °F 29.7 in West 8.1 mph 9 mph 92% 0 in 0.00 W/m2
20:45 62.1 °F 59.7 °F 29.7 in West 10.1 mph 15 mph 92% 0 in 0.00 W/m2
20:50 62.1 °F 59.7 °F 29.7 in WSW 4.9 mph 13 mph 92% 0 in 0.00 W/m2
20:55 62.1 °F 59.7 °F 29.7 in WSW 8.1 mph 12 mph 92% 0 in 0.00 W/m2
21:00 61.9 °F 59.5 °F 29.8 in West 2.9 mph 9 mph 92% 0 in 0.00 W/m2
21:05 61.7 °F 59.4 °F 29.8 in West 6 mph 14 mph 92% 0 in 0.00 W/m2
21:10 61.7 °F 59.4 °F 29.8 in West 8.1 mph 9 mph 92% 0 in 0.00 W/m2
21:15 61.7 °F 59.4 °F 29.8 in West 4 mph 13 mph 92% 0.01 in 0.00 W/m2
21:20 61.5 °F 59.2 °F 29.8 in West 6 mph 12 mph 92% 0.01 in 0.00 W/m2
21:25 61.5 °F 59.2 °F 29.8 in NW 8.9 mph 10 mph 92% 0.01 in 0.00 W/m2
21:30 61.3 °F 59 °F 29.8 in West 2 mph 6 mph 92% 0.01 in 0.00 W/m2
21:35 61.3 °F 59 °F 29.8 in Calm   6 mph 92% 0.01 in 0.00 W/m2
21:40 61.3 °F 59 °F 29.8 in West 6.9 mph 7 mph 92% 0.01 in 0.00 W/m2
21:45 61.3 °F 59 °F 29.8 in WNW 4 mph 10 mph 92% 0.01 in 0.00 W/m2
21:50 61.3 °F 59.4 °F 29.8 in WNW 6 mph 8 mph 93% 0.01 in 0.00 W/m2
21:55 61.3 °F 59.4 °F 29.8 in WSW 2.9 mph 7 mph 93% 0.01 in 0.00 W/m2
22:00 61.3 °F 59.4 °F 29.8 in West 4 mph 7 mph 93% 0.01 in 0.00 W/m2
22:05 61.3 °F 59.4 °F 29.8 in WSW 4.9 mph 11 mph 93% 0.01 in 0.00 W/m2
22:10 61.3 °F 59.4 °F 29.8 in WSW 6 mph 7 mph 93% 0 in 0.00 W/m2
22:15 61.3 °F 59.4 °F 29.8 in West 6 mph 14 mph 93% 0 in 0.00 W/m2
22:20 61.3 °F 59.4 °F 29.8 in WNW 13 mph 13 mph 93% 0 in 0.00 W/m2
22:25 61.5 °F 59.5 °F 29.8 in West 6 mph 10 mph 93% 0 in 0.00 W/m2
22:30 61.5 °F 59.5 °F 29.8 in West 4 mph 10 mph 93% 0 in 0.00 W/m2
22:35 61.5 °F 59.5 °F 29.8 in West 4.9 mph 8 mph 93% 0 in 0.00 W/m2
22:40 61.5 °F 59.5 °F 29.8 in WNW 10.1 mph 10 mph 93% 0 in 0.00 W/m2
22:45 61.5 °F 59.5 °F 29.8 in WNW 6 mph 9 mph 93% 0 in 0.00 W/m2
22:50 61.5 °F 59.5 °F 29.8 in WNW 8.9 mph 9 mph 93% 0 in 0.00 W/m2
22:55 61.5 °F 59.5 °F 29.8 in WNW 8.1 mph 9 mph 93% 0 in 0.00 W/m2
23:00 61.5 °F 59.5 °F 29.8 in WNW 2.9 mph 12 mph 93% 0 in 0.00 W/m2
23:05 61.5 °F 59.5 °F 29.8 in West 4 mph 11 mph 93% 0 in 0.00 W/m2
23:10 61.5 °F 59.5 °F 29.8 in WSW 8.1 mph 10 mph 93% 0 in 0.00 W/m2
23:15 61.5 °F 59.2 °F 29.8 in West 4 mph 13 mph 92% 0 in 0.00 W/m2
23:20 61.5 °F 59.2 °F 29.8 in WNW 8.1 mph 12 mph 92% 0 in 0.00 W/m2
23:25 61.5 °F 59.2 °F 29.8 in West 6 mph 13 mph 92% 0 in 0.00 W/m2
23:30 61.5 °F 59.2 °F 29.8 in WNW 8.1 mph 12 mph 92% 0 in 0.00 W/m2
23:35 61.7 °F 59 °F 29.8 in NW 6.9 mph 13 mph 91% 0 in 0.00 W/m2
23:40 61.5 °F 58.8 °F 29.8 in WNW 8.9 mph 16 mph 91% 0 in 0.00 W/m2
23:45 61.5 °F 58.6 °F 29.8 in WNW 12.1 mph 16 mph 90% 0 in 0.00 W/m2
23:50 61.5 °F 58.6 °F 29.8 in West 12.1 mph 12 mph 90% 0 in 0.00 W/m2
23:55 61.5 °F 58.3 °F 29.8 in West 8.9 mph 14 mph 89% 0 in 0.00 W/m2